sensor_id;sensor_type;location;lat;lon;timestamp;P1;durP1;ratioP1;P2;durP2;ratioP2
51304;SDS011;37392;50.964;6.952;2022-12-31T00:01:28;5.07;;;2.67;;
51304;SDS011;37392;50.964;6.952;2022-12-31T00:03:55;8.80;;;2.72;;
51304;SDS011;37392;50.964;6.952;2022-12-31T00:08:55;4.07;;;1.80;;
51304;SDS011;37392;50.964;6.952;2022-12-31T00:11:24;2.63;;;1.83;;
51304;SDS011;37392;50.964;6.952;2022-12-31T00:13:51;4.20;;;1.65;;
51304;SDS011;37392;50.964;6.952;2022-12-31T00:16:19;5.75;;;1.90;;
51304;SDS011;37392;50.964;6.952;2022-12-31T00:18:52;4.07;;;1.50;;
51304;SDS011;37392;50.964;6.952;2022-12-31T00:21:20;2.40;;;1.60;;
51304;SDS011;37392;50.964;6.952;2022-12-31T00:23:46;6.45;;;1.67;;
51304;SDS011;37392;50.964;6.952;2022-12-31T00:26:16;4.20;;;2.33;;
51304;SDS011;37392;50.964;6.952;2022-12-31T00:28:45;4.45;;;2.30;;
51304;SDS011;37392;50.964;6.952;2022-12-31T00:31:12;3.50;;;1.98;;
51304;SDS011;37392;50.964;6.952;2022-12-31T00:33:41;3.22;;;1.95;;
51304;SDS011;37392;50.964;6.952;2022-12-31T00:36:09;4.78;;;1.90;;
51304;SDS011;37392;50.964;6.952;2022-12-31T00:38:38;2.93;;;1.80;;
51304;SDS011;37392;50.964;6.952;2022-12-31T00:41:06;4.45;;;2.03;;
51304;SDS011;37392;50.964;6.952;2022-12-31T00:43:32;3.55;;;2.05;;
51304;SDS011;37392;50.964;6.952;2022-12-31T00:45:58;2.28;;;1.77;;
51304;SDS011;37392;50.964;6.952;2022-12-31T00:48:24;1.65;;;1.38;;
51304;SDS011;37392;50.964;6.952;2022-12-31T00:50:51;2.10;;;1.00;;
51304;SDS011;37392;50.964;6.952;2022-12-31T00:53:17;3.38;;;2.40;;
51304;SDS011;37392;50.964;6.952;2022-12-31T00:55:43;8.43;;;6.30;;
51304;SDS011;37392;50.964;6.952;2022-12-31T00:58:08;6.50;;;4.13;;
51304;SDS011;37392;50.964;6.952;2022-12-31T01:00:35;8.38;;;3.60;;
51304;SDS011;37392;50.964;6.952;2022-12-31T01:03:01;8.85;;;3.88;;
51304;SDS011;37392;50.964;6.952;2022-12-31T01:05:28;16.13;;;9.77;;
51304;SDS011;37392;50.964;6.952;2022-12-31T01:07:55;15.75;;;9.85;;
51304;SDS011;37392;50.964;6.952;2022-12-31T01:10:20;9.80;;;4.82;;
51304;SDS011;37392;50.964;6.952;2022-12-31T01:13:05;6.00;;;2.92;;
51304;SDS011;37392;50.964;6.952;2022-12-31T01:15:34;4.53;;;2.95;;
51304;SDS011;37392;50.964;6.952;2022-12-31T01:18:05;3.63;;;2.88;;
51304;SDS011;37392;50.964;6.952;2022-12-31T01:20:37;6.28;;;1.95;;
51304;SDS011;37392;50.964;6.952;2022-12-31T01:23:06;2.55;;;1.35;;
51304;SDS011;37392;50.964;6.952;2022-12-31T01:25:34;2.33;;;0.70;;
51304;SDS011;37392;50.964;6.952;2022-12-31T01:28:02;1.52;;;0.70;;
51304;SDS011;37392;50.964;6.952;2022-12-31T01:30:29;0.57;;;0.50;;
51304;SDS011;37392;50.964;6.952;2022-12-31T01:32:55;1.42;;;0.77;;
51304;SDS011;37392;50.964;6.952;2022-12-31T01:35:21;0.57;;;0.52;;
51304;SDS011;37392;50.964;6.952;2022-12-31T01:37:47;0.50;;;0.30;;
51304;SDS011;37392;50.964;6.952;2022-12-31T01:40:12;1.08;;;0.60;;
51304;SDS011;37392;50.964;6.952;2022-12-31T01:42:38;3.15;;;0.50;;
51304;SDS011;37392;50.964;6.952;2022-12-31T01:45:08;0.65;;;0.50;;
51304;SDS011;37392;50.964;6.952;2022-12-31T01:47:38;1.35;;;0.50;;
51304;SDS011;37392;50.964;6.952;2022-12-31T01:50:21;0.35;;;0.30;;
51304;SDS011;37392;50.964;6.952;2022-12-31T01:52:54;2.00;;;0.40;;
51304;SDS011;37392;50.964;6.952;2022-12-31T01:55:27;0.60;;;0.60;;
51304;SDS011;37392;50.964;6.952;2022-12-31T01:58:04;0.20;;;0.20;;
51304;SDS011;37392;50.964;6.952;2022-12-31T02:00:46;0.63;;;0.45;;
51304;SDS011;37392;50.964;6.952;2022-12-31T02:03:13;0.32;;;0.30;;
51304;SDS011;37392;50.964;6.952;2022-12-31T02:08:16;0.35;;;0.30;;
51304;SDS011;37392;50.964;6.952;2022-12-31T02:10:42;1.30;;;0.45;;
51304;SDS011;37392;50.964;6.952;2022-12-31T02:13:07;1.02;;;0.70;;
51304;SDS011;37392;50.964;6.952;2022-12-31T02:15:46;0.63;;;0.30;;
51304;SDS011;37392;50.964;6.952;2022-12-31T02:21:35;1.00;;;0.63;;
51304;SDS011;37392;50.964;6.952;2022-12-31T02:24:38;0.30;;;0.30;;
51304;SDS011;37392;50.964;6.952;2022-12-31T02:27:27;0.45;;;0.30;;
51304;SDS011;37392;50.964;6.952;2022-12-31T02:30:23;0.55;;;0.40;;
51304;SDS011;37392;50.964;6.952;2022-12-31T02:35:33;0.57;;;0.40;;
51304;SDS011;37392;50.964;6.952;2022-12-31T02:38:24;0.85;;;0.45;;
51304;SDS011;37392;50.964;6.952;2022-12-31T02:40:58;0.40;;;0.40;;
51304;SDS011;37392;50.964;6.952;2022-12-31T02:43:24;0.47;;;0.20;;
51304;SDS011;37392;50.964;6.952;2022-12-31T02:46:01;1.98;;;0.45;;
51304;SDS011;37392;50.964;6.952;2022-12-31T02:54:11;0.20;;;0.10;;
51304;SDS011;37392;50.964;6.952;2022-12-31T02:57:24;0.50;;;0.40;;
51304;SDS011;37392;50.964;6.952;2022-12-31T03:00:12;0.55;;;0.35;;
51304;SDS011;37392;50.964;6.952;2022-12-31T03:02:59;0.75;;;0.20;;
51304;SDS011;37392;50.964;6.952;2022-12-31T03:05:27;0.17;;;0.15;;
51304;SDS011;37392;50.964;6.952;2022-12-31T03:07:56;1.27;;;0.98;;
51304;SDS011;37392;50.964;6.952;2022-12-31T03:10:22;1.52;;;1.05;;
51304;SDS011;37392;50.964;6.952;2022-12-31T03:12:48;1.25;;;0.88;;
51304;SDS011;37392;50.964;6.952;2022-12-31T03:15:15;0.52;;;0.30;;
51304;SDS011;37392;50.964;6.952;2022-12-31T03:17:51;0.70;;;0.30;;
51304;SDS011;37392;50.964;6.952;2022-12-31T03:20:23;3.63;;;1.25;;
51304;SDS011;37392;50.964;6.952;2022-12-31T03:23:33;0.20;;;0.20;;
51304;SDS011;37392;50.964;6.952;2022-12-31T03:26:07;2.33;;;1.70;;
51304;SDS011;37392;50.964;6.952;2022-12-31T03:28:36;4.05;;;0.60;;
51304;SDS011;37392;50.964;6.952;2022-12-31T03:31:04;2.67;;;1.00;;
51304;SDS011;37392;50.964;6.952;2022-12-31T03:33:33;0.73;;;0.40;;
51304;SDS011;37392;50.964;6.952;2022-12-31T03:36:02;0.47;;;0.30;;
51304;SDS011;37392;50.964;6.952;2022-12-31T03:38:30;2.05;;;0.85;;
51304;SDS011;37392;50.964;6.952;2022-12-31T03:40:55;0.80;;;0.38;;
51304;SDS011;37392;50.964;6.952;2022-12-31T03:43:21;1.98;;;0.30;;
51304;SDS011;37392;50.964;6.952;2022-12-31T03:45:50;1.58;;;0.57;;
51304;SDS011;37392;50.964;6.952;2022-12-31T03:48:17;0.97;;;0.53;;
51304;SDS011;37392;50.964;6.952;2022-12-31T03:50:44;1.25;;;0.77;;
51304;SDS011;37392;50.964;6.952;2022-12-31T03:53:10;1.73;;;0.20;;
51304;SDS011;37392;50.964;6.952;2022-12-31T03:55:36;1.90;;;0.50;;
51304;SDS011;37392;50.964;6.952;2022-12-31T03:58:02;3.30;;;1.65;;
51304;SDS011;37392;50.964;6.952;2022-12-31T04:00:27;1.30;;;0.43;;
51304;SDS011;37392;50.964;6.952;2022-12-31T04:02:53;0.63;;;0.40;;
51304;SDS011;37392;50.964;6.952;2022-12-31T04:05:19;0.98;;;0.30;;
51304;SDS011;37392;50.964;6.952;2022-12-31T04:07:45;1.75;;;0.68;;
51304;SDS011;37392;50.964;6.952;2022-12-31T04:10:12;0.75;;;0.60;;
51304;SDS011;37392;50.964;6.952;2022-12-31T04:12:39;1.65;;;0.40;;
51304;SDS011;37392;50.964;6.952;2022-12-31T04:15:06;7.22;;;0.63;;
51304;SDS011;37392;50.964;6.952;2022-12-31T04:17:33;0.75;;;0.60;;
51304;SDS011;37392;50.964;6.952;2022-12-31T04:19:58;5.78;;;0.82;;
51304;SDS011;37392;50.964;6.952;2022-12-31T04:22:24;0.30;;;0.22;;
51304;SDS011;37392;50.964;6.952;2022-12-31T04:24:49;1.15;;;0.70;;
51304;SDS011;37392;50.964;6.952;2022-12-31T04:27:15;0.50;;;0.30;;
51304;SDS011;37392;50.964;6.952;2022-12-31T04:29:41;0.30;;;0.30;;
51304;SDS011;37392;50.964;6.952;2022-12-31T04:32:07;1.00;;;0.43;;
51304;SDS011;37392;50.964;6.952;2022-12-31T04:34:33;1.80;;;0.52;;
51304;SDS011;37392;50.964;6.952;2022-12-31T04:36:59;3.45;;;0.40;;
51304;SDS011;37392;50.964;6.952;2022-12-31T04:39:25;1.02;;;0.57;;
51304;SDS011;37392;50.964;6.952;2022-12-31T04:41:51;1.10;;;0.80;;
51304;SDS011;37392;50.964;6.952;2022-12-31T04:44:18;2.05;;;0.60;;
51304;SDS011;37392;50.964;6.952;2022-12-31T04:46:43;1.52;;;0.60;;
51304;SDS011;37392;50.964;6.952;2022-12-31T04:49:09;0.43;;;0.17;;
51304;SDS011;37392;50.964;6.952;2022-12-31T04:51:35;0.95;;;0.30;;
51304;SDS011;37392;50.964;6.952;2022-12-31T04:54:01;0.95;;;0.70;;
51304;SDS011;37392;50.964;6.952;2022-12-31T04:56:28;0.68;;;0.30;;
51304;SDS011;37392;50.964;6.952;2022-12-31T04:58:54;0.60;;;0.30;;
51304;SDS011;37392;50.964;6.952;2022-12-31T05:01:20;1.30;;;0.57;;
51304;SDS011;37392;50.964;6.952;2022-12-31T05:03:47;0.80;;;0.55;;
51304;SDS011;37392;50.964;6.952;2022-12-31T05:06:14;2.40;;;0.70;;
51304;SDS011;37392;50.964;6.952;2022-12-31T05:08:43;0.55;;;0.30;;
51304;SDS011;37392;50.964;6.952;2022-12-31T05:11:08;5.03;;;0.47;;
51304;SDS011;37392;50.964;6.952;2022-12-31T05:13:35;0.95;;;0.47;;
51304;SDS011;37392;50.964;6.952;2022-12-31T05:16:01;4.82;;;0.52;;
51304;SDS011;37392;50.964;6.952;2022-12-31T05:18:29;0.57;;;0.50;;
51304;SDS011;37392;50.964;6.952;2022-12-31T05:20:56;1.63;;;0.82;;
51304;SDS011;37392;50.964;6.952;2022-12-31T05:23:22;2.55;;;0.80;;
51304;SDS011;37392;50.964;6.952;2022-12-31T05:25:47;4.03;;;0.57;;
51304;SDS011;37392;50.964;6.952;2022-12-31T05:28:13;0.47;;;0.30;;
51304;SDS011;37392;50.964;6.952;2022-12-31T05:30:40;1.70;;;0.73;;
51304;SDS011;37392;50.964;6.952;2022-12-31T05:33:06;2.65;;;0.60;;
51304;SDS011;37392;50.964;6.952;2022-12-31T05:35:33;0.77;;;0.50;;
51304;SDS011;37392;50.964;6.952;2022-12-31T05:37:59;2.42;;;1.05;;
51304;SDS011;37392;50.964;6.952;2022-12-31T05:40:25;4.15;;;0.82;;
51304;SDS011;37392;50.964;6.952;2022-12-31T05:42:51;5.18;;;0.60;;
51304;SDS011;37392;50.964;6.952;2022-12-31T05:45:17;2.22;;;0.65;;
51304;SDS011;37392;50.964;6.952;2022-12-31T05:47:43;2.53;;;0.90;;
51304;SDS011;37392;50.964;6.952;2022-12-31T05:50:10;1.95;;;0.80;;
51304;SDS011;37392;50.964;6.952;2022-12-31T05:52:39;3.80;;;0.77;;
51304;SDS011;37392;50.964;6.952;2022-12-31T05:55:05;1.63;;;0.90;;
51304;SDS011;37392;50.964;6.952;2022-12-31T05:57:31;0.95;;;0.63;;
51304;SDS011;37392;50.964;6.952;2022-12-31T05:59:57;2.47;;;0.77;;
51304;SDS011;37392;50.964;6.952;2022-12-31T06:02:22;1.95;;;0.55;;
51304;SDS011;37392;50.964;6.952;2022-12-31T06:04:48;1.85;;;0.60;;
51304;SDS011;37392;50.964;6.952;2022-12-31T06:07:13;0.57;;;0.43;;
51304;SDS011;37392;50.964;6.952;2022-12-31T06:09:39;4.22;;;0.70;;
51304;SDS011;37392;50.964;6.952;2022-12-31T06:12:05;3.33;;;0.70;;
51304;SDS011;37392;50.964;6.952;2022-12-31T06:14:31;4.13;;;0.68;;
51304;SDS011;37392;50.964;6.952;2022-12-31T06:17:00;2.40;;;1.30;;
51304;SDS011;37392;50.964;6.952;2022-12-31T06:19:25;1.85;;;0.70;;
51304;SDS011;37392;50.964;6.952;2022-12-31T06:21:51;6.68;;;1.38;;
51304;SDS011;37392;50.964;6.952;2022-12-31T06:24:16;2.42;;;0.77;;
51304;SDS011;37392;50.964;6.952;2022-12-31T06:26:42;1.13;;;0.60;;
51304;SDS011;37392;50.964;6.952;2022-12-31T06:29:08;3.22;;;0.60;;
51304;SDS011;37392;50.964;6.952;2022-12-31T06:31:34;3.50;;;0.90;;
51304;SDS011;37392;50.964;6.952;2022-12-31T06:34:00;6.28;;;1.02;;
51304;SDS011;37392;50.964;6.952;2022-12-31T06:36:26;1.77;;;0.90;;
51304;SDS011;37392;50.964;6.952;2022-12-31T06:38:51;2.35;;;1.08;;
51304;SDS011;37392;50.964;6.952;2022-12-31T06:41:17;2.33;;;1.10;;
51304;SDS011;37392;50.964;6.952;2022-12-31T06:43:43;2.92;;;1.05;;
51304;SDS011;37392;50.964;6.952;2022-12-31T06:46:11;0.93;;;0.50;;
51304;SDS011;37392;50.964;6.952;2022-12-31T06:48:39;2.40;;;1.00;;
51304;SDS011;37392;50.964;6.952;2022-12-31T06:51:17;2.92;;;1.23;;
51304;SDS011;37392;50.964;6.952;2022-12-31T06:53:45;4.10;;;0.80;;
51304;SDS011;37392;50.964;6.952;2022-12-31T06:56:13;2.60;;;0.90;;
51304;SDS011;37392;50.964;6.952;2022-12-31T06:58:52;3.13;;;0.90;;
51304;SDS011;37392;50.964;6.952;2022-12-31T07:03:57;3.25;;;0.68;;
51304;SDS011;37392;50.964;6.952;2022-12-31T07:06:48;4.65;;;0.88;;
51304;SDS011;37392;50.964;6.952;2022-12-31T07:20:27;2.58;;;0.93;;
51304;SDS011;37392;50.964;6.952;2022-12-31T07:22:53;3.17;;;0.65;;
51304;SDS011;37392;50.964;6.952;2022-12-31T07:25:19;5.03;;;0.68;;
51304;SDS011;37392;50.964;6.952;2022-12-31T07:28:06;3.92;;;0.60;;
51304;SDS011;37392;50.964;6.952;2022-12-31T07:31:06;4.38;;;0.73;;
51304;SDS011;37392;50.964;6.952;2022-12-31T07:39:22;5.15;;;1.25;;
51304;SDS011;37392;50.964;6.952;2022-12-31T07:45:12;2.50;;;0.68;;
51304;SDS011;37392;50.964;6.952;2022-12-31T07:48:26;3.03;;;0.77;;
51304;SDS011;37392;50.964;6.952;2022-12-31T07:50:53;4.70;;;1.38;;
51304;SDS011;37392;50.964;6.952;2022-12-31T07:53:24;4.70;;;1.08;;
51304;SDS011;37392;50.964;6.952;2022-12-31T07:55:52;5.90;;;0.90;;
51304;SDS011;37392;50.964;6.952;2022-12-31T07:58:23;4.15;;;1.90;;
51304;SDS011;37392;50.964;6.952;2022-12-31T08:01:08;6.43;;;1.10;;
51304;SDS011;37392;50.964;6.952;2022-12-31T08:03:44;5.30;;;1.02;;
51304;SDS011;37392;50.964;6.952;2022-12-31T08:12:24;3.13;;;1.38;;
51304;SDS011;37392;50.964;6.952;2022-12-31T08:14:51;4.18;;;1.27;;
51304;SDS011;37392;50.964;6.952;2022-12-31T08:17:18;2.15;;;1.13;;
51304;SDS011;37392;50.964;6.952;2022-12-31T08:19:44;7.05;;;0.98;;
51304;SDS011;37392;50.964;6.952;2022-12-31T08:30:27;3.42;;;1.65;;
51304;SDS011;37392;50.964;6.952;2022-12-31T08:33:26;2.30;;;1.20;;
51304;SDS011;37392;50.964;6.952;2022-12-31T08:36:25;6.65;;;1.90;;
51304;SDS011;37392;50.964;6.952;2022-12-31T08:39:09;7.30;;;1.35;;
51304;SDS011;37392;50.964;6.952;2022-12-31T08:41:52;6.13;;;2.22;;
51304;SDS011;37392;50.964;6.952;2022-12-31T08:44:27;7.35;;;1.05;;
51304;SDS011;37392;50.964;6.952;2022-12-31T08:50:01;4.38;;;1.30;;
51304;SDS011;37392;50.964;6.952;2022-12-31T08:52:27;4.13;;;0.82;;
51304;SDS011;37392;50.964;6.952;2022-12-31T08:54:54;1.95;;;1.15;;
51304;SDS011;37392;50.964;6.952;2022-12-31T08:57:29;8.27;;;1.20;;
51304;SDS011;37392;50.964;6.952;2022-12-31T09:00:12;1.60;;;0.80;;
51304;SDS011;37392;50.964;6.952;2022-12-31T09:17:31;5.22;;;1.55;;
51304;SDS011;37392;50.964;6.952;2022-12-31T09:20:23;9.73;;;1.17;;
51304;SDS011;37392;50.964;6.952;2022-12-31T09:22:55;2.25;;;1.00;;
51304;SDS011;37392;50.964;6.952;2022-12-31T09:25:23;2.55;;;0.85;;
51304;SDS011;37392;50.964;6.952;2022-12-31T09:31:09;4.53;;;2.00;;
51304;SDS011;37392;50.964;6.952;2022-12-31T09:33:46;4.75;;;1.50;;
51304;SDS011;37392;50.964;6.952;2022-12-31T09:36:21;4.50;;;1.35;;
51304;SDS011;37392;50.964;6.952;2022-12-31T09:39:15;7.15;;;1.30;;
51304;SDS011;37392;50.964;6.952;2022-12-31T10:03:42;9.10;;;2.35;;
51304;SDS011;37392;50.964;6.952;2022-12-31T10:06:34;2.83;;;1.40;;
51304;SDS011;37392;50.964;6.952;2022-12-31T10:18:38;5.80;;;1.23;;
51304;SDS011;37392;50.964;6.952;2022-12-31T10:21:45;5.47;;;2.72;;
51304;SDS011;37392;50.964;6.952;2022-12-31T10:27:42;2.70;;;1.30;;
51304;SDS011;37392;50.964;6.952;2022-12-31T10:30:26;8.93;;;1.40;;
51304;SDS011;37392;50.964;6.952;2022-12-31T10:36:01;6.72;;;1.50;;
51304;SDS011;37392;50.964;6.952;2022-12-31T10:39:02;4.82;;;1.80;;
51304;SDS011;37392;50.964;6.952;2022-12-31T10:45:28;4.43;;;1.38;;
51304;SDS011;37392;50.964;6.952;2022-12-31T11:13:32;3.17;;;1.60;;
51304;SDS011;37392;50.964;6.952;2022-12-31T11:19:11;6.40;;;1.75;;
51304;SDS011;37392;50.964;6.952;2022-12-31T11:51:38;6.35;;;2.10;;
51304;SDS011;37392;50.964;6.952;2022-12-31T12:00:08;4.15;;;1.50;;
51304;SDS011;37392;50.964;6.952;2022-12-31T12:02:44;7.40;;;1.90;;
51304;SDS011;37392;50.964;6.952;2022-12-31T12:05:18;9.85;;;4.07;;
51304;SDS011;37392;50.964;6.952;2022-12-31T12:07:47;11.20;;;2.30;;
51304;SDS011;37392;50.964;6.952;2022-12-31T12:10:27;6.68;;;1.92;;
51304;SDS011;37392;50.964;6.952;2022-12-31T12:13:17;7.85;;;1.98;;
51304;SDS011;37392;50.964;6.952;2022-12-31T12:15:54;5.60;;;1.73;;
51304;SDS011;37392;50.964;6.952;2022-12-31T12:18:28;10.75;;;2.92;;
51304;SDS011;37392;50.964;6.952;2022-12-31T12:21:24;13.10;;;2.63;;
51304;SDS011;37392;50.964;6.952;2022-12-31T12:23:57;10.32;;;4.03;;
51304;SDS011;37392;50.964;6.952;2022-12-31T12:26:47;7.63;;;2.22;;
51304;SDS011;37392;50.964;6.952;2022-12-31T12:31:39;5.20;;;2.03;;
51304;SDS011;37392;50.964;6.952;2022-12-31T12:34:16;10.30;;;2.42;;
51304;SDS011;37392;50.964;6.952;2022-12-31T12:36:48;15.18;;;2.05;;
51304;SDS011;37392;50.964;6.952;2022-12-31T12:39:17;4.75;;;1.60;;
51304;SDS011;37392;50.964;6.952;2022-12-31T12:41:46;6.43;;;1.67;;
51304;SDS011;37392;50.964;6.952;2022-12-31T12:44:15;12.90;;;1.90;;
51304;SDS011;37392;50.964;6.952;2022-12-31T12:46:45;7.78;;;1.50;;
51304;SDS011;37392;50.964;6.952;2022-12-31T12:49:21;4.43;;;1.45;;
51304;SDS011;37392;50.964;6.952;2022-12-31T12:55:02;5.65;;;3.03;;
51304;SDS011;37392;50.964;6.952;2022-12-31T12:57:41;5.68;;;1.92;;
51304;SDS011;37392;50.964;6.952;2022-12-31T13:23:24;5.70;;;2.50;;
51304;SDS011;37392;50.964;6.952;2022-12-31T13:29:13;7.90;;;2.40;;
51304;SDS011;37392;50.964;6.952;2022-12-31T13:31:43;10.85;;;2.78;;
51304;SDS011;37392;50.964;6.952;2022-12-31T13:34:12;13.85;;;1.95;;
51304;SDS011;37392;50.964;6.952;2022-12-31T13:36:46;6.75;;;1.90;;
51304;SDS011;37392;50.964;6.952;2022-12-31T13:39:15;9.02;;;1.75;;
51304;SDS011;37392;50.964;6.952;2022-12-31T13:41:48;8.25;;;2.63;;
51304;SDS011;37392;50.964;6.952;2022-12-31T13:44:34;9.10;;;2.20;;
51304;SDS011;37392;50.964;6.952;2022-12-31T13:47:12;7.35;;;2.67;;
51304;SDS011;37392;50.964;6.952;2022-12-31T13:49:47;6.15;;;2.25;;
51304;SDS011;37392;50.964;6.952;2022-12-31T13:57:42;5.05;;;1.92;;
51304;SDS011;37392;50.964;6.952;2022-12-31T14:00:19;7.60;;;2.97;;
51304;SDS011;37392;50.964;6.952;2022-12-31T14:06:10;7.78;;;2.15;;
51304;SDS011;37392;50.964;6.952;2022-12-31T14:09:03;6.78;;;1.70;;
51304;SDS011;37392;50.964;6.952;2022-12-31T14:11:39;6.07;;;2.58;;
51304;SDS011;37392;50.964;6.952;2022-12-31T14:20:38;6.25;;;2.38;;
51304;SDS011;37392;50.964;6.952;2022-12-31T14:25:55;9.02;;;3.30;;
51304;SDS011;37392;50.964;6.952;2022-12-31T14:28:27;9.68;;;3.33;;
51304;SDS011;37392;50.964;6.952;2022-12-31T14:31:03;13.07;;;4.13;;
51304;SDS011;37392;50.964;6.952;2022-12-31T14:34:01;14.05;;;3.60;;
51304;SDS011;37392;50.964;6.952;2022-12-31T14:49:00;10.07;;;2.67;;
51304;SDS011;37392;50.964;6.952;2022-12-31T14:51:40;12.40;;;5.22;;
51304;SDS011;37392;50.964;6.952;2022-12-31T14:54:21;9.77;;;3.08;;
51304;SDS011;37392;50.964;6.952;2022-12-31T14:56:51;11.48;;;2.45;;
51304;SDS011;37392;50.964;6.952;2022-12-31T14:59:20;4.10;;;1.83;;
51304;SDS011;37392;50.964;6.952;2022-12-31T15:01:56;11.63;;;2.25;;
51304;SDS011;37392;50.964;6.952;2022-12-31T15:04:29;6.90;;;2.38;;
51304;SDS011;37392;50.964;6.952;2022-12-31T15:08:00;5.85;;;1.92;;
51304;SDS011;37392;50.964;6.952;2022-12-31T15:11:07;8.77;;;2.35;;
51304;SDS011;37392;50.964;6.952;2022-12-31T15:17:03;11.75;;;2.00;;
51304;SDS011;37392;50.964;6.952;2022-12-31T15:22:56;6.60;;;2.58;;
51304;SDS011;37392;50.964;6.952;2022-12-31T15:25:32;5.40;;;2.03;;
51304;SDS011;37392;50.964;6.952;2022-12-31T15:28:01;4.65;;;1.60;;
51304;SDS011;37392;50.964;6.952;2022-12-31T15:33:00;8.52;;;1.73;;
51304;SDS011;37392;50.964;6.952;2022-12-31T15:35:50;3.10;;;1.52;;
51304;SDS011;37392;50.964;6.952;2022-12-31T15:38:38;6.70;;;2.25;;
51304;SDS011;37392;50.964;6.952;2022-12-31T15:41:12;4.20;;;2.17;;
51304;SDS011;37392;50.964;6.952;2022-12-31T15:43:49;5.03;;;1.98;;
51304;SDS011;37392;50.964;6.952;2022-12-31T15:46:21;3.40;;;1.48;;
51304;SDS011;37392;50.964;6.952;2022-12-31T15:48:56;13.50;;;3.35;;
51304;SDS011;37392;50.964;6.952;2022-12-31T15:51:43;9.35;;;3.38;;
51304;SDS011;37392;50.964;6.952;2022-12-31T15:57:10;12.20;;;3.38;;
51304;SDS011;37392;50.964;6.952;2022-12-31T15:59:58;2.42;;;1.55;;
51304;SDS011;37392;50.964;6.952;2022-12-31T16:02:26;5.95;;;2.13;;
51304;SDS011;37392;50.964;6.952;2022-12-31T16:04:53;19.85;;;7.15;;
51304;SDS011;37392;50.964;6.952;2022-12-31T16:07:20;27.48;;;7.88;;
51304;SDS011;37392;50.964;6.952;2022-12-31T16:09:48;12.85;;;5.15;;
51304;SDS011;37392;50.964;6.952;2022-12-31T16:12:18;8.27;;;3.28;;
51304;SDS011;37392;50.964;6.952;2022-12-31T16:14:52;7.03;;;2.70;;
51304;SDS011;37392;50.964;6.952;2022-12-31T16:17:25;5.22;;;2.83;;
51304;SDS011;37392;50.964;6.952;2022-12-31T16:20:23;8.73;;;2.40;;
51304;SDS011;37392;50.964;6.952;2022-12-31T16:22:50;7.20;;;2.22;;
51304;SDS011;37392;50.964;6.952;2022-12-31T16:25:20;11.32;;;1.75;;
51304;SDS011;37392;50.964;6.952;2022-12-31T16:27:49;3.60;;;2.15;;
51304;SDS011;37392;50.964;6.952;2022-12-31T16:30:18;8.30;;;2.65;;
51304;SDS011;37392;50.964;6.952;2022-12-31T16:32:50;6.88;;;2.47;;
51304;SDS011;37392;50.964;6.952;2022-12-31T16:37:59;8.32;;;4.13;;
51304;SDS011;37392;50.964;6.952;2022-12-31T16:40:43;11.45;;;5.47;;
51304;SDS011;37392;50.964;6.952;2022-12-31T16:43:35;10.98;;;4.20;;
51304;SDS011;37392;50.964;6.952;2022-12-31T16:48:52;9.05;;;4.22;;
51304;SDS011;37392;50.964;6.952;2022-12-31T16:51:21;8.00;;;3.15;;
51304;SDS011;37392;50.964;6.952;2022-12-31T16:53:50;10.18;;;4.18;;
51304;SDS011;37392;50.964;6.952;2022-12-31T16:56:30;9.32;;;4.00;;
51304;SDS011;37392;50.964;6.952;2022-12-31T16:59:05;5.03;;;3.13;;
51304;SDS011;37392;50.964;6.952;2022-12-31T17:01:42;10.20;;;3.83;;
51304;SDS011;37392;50.964;6.952;2022-12-31T17:04:09;8.57;;;3.33;;
51304;SDS011;37392;50.964;6.952;2022-12-31T17:06:37;14.15;;;4.20;;
51304;SDS011;37392;50.964;6.952;2022-12-31T17:09:07;8.88;;;3.38;;
51304;SDS011;37392;50.964;6.952;2022-12-31T17:14:21;9.35;;;3.53;;
51304;SDS011;37392;50.964;6.952;2022-12-31T17:27:33;8.00;;;3.55;;
51304;SDS011;37392;50.964;6.952;2022-12-31T17:30:20;10.45;;;4.70;;
51304;SDS011;37392;50.964;6.952;2022-12-31T17:32:57;14.98;;;6.00;;
51304;SDS011;37392;50.964;6.952;2022-12-31T17:35:31;23.48;;;10.73;;
51304;SDS011;37392;50.964;6.952;2022-12-31T17:40:50;11.27;;;5.22;;
51304;SDS011;37392;50.964;6.952;2022-12-31T17:43:30;16.15;;;5.28;;
51304;SDS011;37392;50.964;6.952;2022-12-31T17:45:59;17.67;;;7.55;;
51304;SDS011;37392;50.964;6.952;2022-12-31T17:48:25;12.00;;;5.43;;
51304;SDS011;37392;50.964;6.952;2022-12-31T17:50:57;26.17;;;10.80;;
51304;SDS011;37392;50.964;6.952;2022-12-31T17:53:24;25.80;;;9.55;;
51304;SDS011;37392;50.964;6.952;2022-12-31T17:55:51;14.80;;;4.30;;
51304;SDS011;37392;50.964;6.952;2022-12-31T17:58:24;24.67;;;11.23;;
51304;SDS011;37392;50.964;6.952;2022-12-31T18:00:53;14.82;;;4.85;;
51304;SDS011;37392;50.964;6.952;2022-12-31T18:03:20;13.93;;;6.35;;
51304;SDS011;37392;50.964;6.952;2022-12-31T18:05:45;27.38;;;10.85;;
51304;SDS011;37392;50.964;6.952;2022-12-31T18:08:11;24.95;;;9.18;;
51304;SDS011;37392;50.964;6.952;2022-12-31T18:10:40;29.42;;;13.25;;
51304;SDS011;37392;50.964;6.952;2022-12-31T18:13:09;21.52;;;9.75;;
51304;SDS011;37392;50.964;6.952;2022-12-31T18:15:41;30.52;;;13.27;;
51304;SDS011;37392;50.964;6.952;2022-12-31T18:18:13;17.60;;;7.55;;
51304;SDS011;37392;50.964;6.952;2022-12-31T18:20:45;19.70;;;8.45;;
51304;SDS011;37392;50.964;6.952;2022-12-31T18:23:46;21.00;;;7.75;;
51304;SDS011;37392;50.964;6.952;2022-12-31T18:26:11;30.67;;;8.65;;
51304;SDS011;37392;50.964;6.952;2022-12-31T18:28:42;21.17;;;7.25;;
51304;SDS011;37392;50.964;6.952;2022-12-31T18:31:12;16.10;;;5.55;;
51304;SDS011;37392;50.964;6.952;2022-12-31T18:33:41;14.63;;;5.18;;
51304;SDS011;37392;50.964;6.952;2022-12-31T18:36:11;10.35;;;4.10;;
51304;SDS011;37392;50.964;6.952;2022-12-31T18:41:05;12.27;;;4.97;;
51304;SDS011;37392;50.964;6.952;2022-12-31T18:43:31;16.92;;;5.60;;
51304;SDS011;37392;50.964;6.952;2022-12-31T18:45:57;14.68;;;5.63;;
51304;SDS011;37392;50.964;6.952;2022-12-31T18:48:23;15.05;;;5.32;;
51304;SDS011;37392;50.964;6.952;2022-12-31T18:50:49;23.92;;;8.60;;
51304;SDS011;37392;50.964;6.952;2022-12-31T18:53:19;21.92;;;7.15;;
51304;SDS011;37392;50.964;6.952;2022-12-31T18:55:48;17.05;;;6.47;;
51304;SDS011;37392;50.964;6.952;2022-12-31T18:58:19;19.35;;;4.22;;
51304;SDS011;37392;50.964;6.952;2022-12-31T19:00:45;10.38;;;3.58;;
51304;SDS011;37392;50.964;6.952;2022-12-31T19:03:13;14.73;;;7.38;;
51304;SDS011;37392;50.964;6.952;2022-12-31T19:05:54;13.38;;;4.57;;
51304;SDS011;37392;50.964;6.952;2022-12-31T19:08:22;9.75;;;3.47;;
51304;SDS011;37392;50.964;6.952;2022-12-31T19:10:48;11.43;;;3.10;;
51304;SDS011;37392;50.964;6.952;2022-12-31T19:13:16;14.38;;;7.60;;
51304;SDS011;37392;50.964;6.952;2022-12-31T19:15:47;21.90;;;6.93;;
51304;SDS011;37392;50.964;6.952;2022-12-31T19:18:15;23.90;;;10.60;;
51304;SDS011;37392;50.964;6.952;2022-12-31T19:20:41;36.00;;;15.70;;
51304;SDS011;37392;50.964;6.952;2022-12-31T19:23:14;21.80;;;6.10;;
51304;SDS011;37392;50.964;6.952;2022-12-31T19:25:43;26.67;;;9.82;;
51304;SDS011;37392;50.964;6.952;2022-12-31T19:28:17;22.88;;;8.32;;
51304;SDS011;37392;50.964;6.952;2022-12-31T19:31:29;23.77;;;9.27;;
51304;SDS011;37392;50.964;6.952;2022-12-31T19:33:55;28.05;;;11.75;;
51304;SDS011;37392;50.964;6.952;2022-12-31T19:36:20;25.58;;;11.45;;
51304;SDS011;37392;50.964;6.952;2022-12-31T19:38:46;46.83;;;16.67;;
51304;SDS011;37392;50.964;6.952;2022-12-31T19:41:16;20.10;;;6.85;;
51304;SDS011;37392;50.964;6.952;2022-12-31T19:43:43;24.55;;;7.45;;
51304;SDS011;37392;50.964;6.952;2022-12-31T19:46:14;28.38;;;10.50;;
51304;SDS011;37392;50.964;6.952;2022-12-31T19:48:42;46.20;;;19.50;;
51304;SDS011;37392;50.964;6.952;2022-12-31T19:51:12;31.88;;;12.40;;
51304;SDS011;37392;50.964;6.952;2022-12-31T19:53:42;41.58;;;14.35;;